BTV weather

Burlington International Airport
Burlington, Vermont, United States

Public forecast

Using degrees Fahrenheit for public forecast. Weather courtesy of forecast.io.

METAR (pilot weather report)

Retrieved 2019/03/25 12:54 UTC (33 minutes ago):

KBTV 251254Z 30007KT 10SM FEW200 M03/M16 A3017 RMK AO2 SLP219 T10331161

TAF (pilot weather forecast)

Retrieved 2019/03/25 12:22 UTC (1 hour ago):

TAF KBTV 251120Z 2512/2612 31006KT P6SM SKC FM260000 27005KT P6SM FEW250